sensor_id;sensor_type;location;lat;lon;timestamp;temperature;humidity
67358;HTU21D;54240;51.096;5.878;2023-11-22T00:00:55;7.10;-6.00
67358;HTU21D;54240;51.096;5.878;2023-11-22T00:03:21;7.05;-6.00
67358;HTU21D;54240;51.096;5.878;2023-11-22T00:05:48;7.02;-6.00
67358;HTU21D;54240;51.096;5.878;2023-11-22T00:08:14;7.01;-6.00
67358;HTU21D;54240;51.096;5.878;2023-11-22T00:10:40;6.98;-6.00
67358;HTU21D;54240;51.096;5.878;2023-11-22T00:13:06;6.85;-6.00
67358;HTU21D;54240;51.096;5.878;2023-11-22T00:15:32;6.82;-6.00
67358;HTU21D;54240;51.096;5.878;2023-11-22T00:17:57;6.78;-6.00
67358;HTU21D;54240;51.096;5.878;2023-11-22T00:20:23;6.75;-6.00
67358;HTU21D;54240;51.096;5.878;2023-11-22T00:22:49;6.79;-6.00
67358;HTU21D;54240;51.096;5.878;2023-11-22T00:25:15;6.81;-6.00
67358;HTU21D;54240;51.096;5.878;2023-11-22T00:27:41;6.78;-6.00
67358;HTU21D;54240;51.096;5.878;2023-11-22T00:30:09;6.73;-6.00
67358;HTU21D;54240;51.096;5.878;2023-11-22T00:32:35;6.75;-6.00
67358;HTU21D;54240;51.096;5.878;2023-11-22T00:35:03;6.80;-6.00
67358;HTU21D;54240;51.096;5.878;2023-11-22T00:37:29;6.76;-6.00
67358;HTU21D;54240;51.096;5.878;2023-11-22T00:39:55;6.74;-6.00
67358;HTU21D;54240;51.096;5.878;2023-11-22T00:42:20;6.71;-6.00
67358;HTU21D;54240;51.096;5.878;2023-11-22T00:44:46;6.65;-6.00
67358;HTU21D;54240;51.096;5.878;2023-11-22T00:47:13;6.59;-6.00
67358;HTU21D;54240;51.096;5.878;2023-11-22T00:49:39;6.54;-6.00
67358;HTU21D;54240;51.096;5.878;2023-11-22T00:52:05;6.46;-6.00
67358;HTU21D;54240;51.096;5.878;2023-11-22T00:54:32;6.40;-6.00
67358;HTU21D;54240;51.096;5.878;2023-11-22T00:56:58;6.34;-6.00
67358;HTU21D;54240;51.096;5.878;2023-11-22T00:59:24;6.31;-6.00
67358;HTU21D;54240;51.096;5.878;2023-11-22T01:01:50;6.20;-6.00
67358;HTU21D;54240;51.096;5.878;2023-11-22T01:04:15;6.30;-6.00
67358;HTU21D;54240;51.096;5.878;2023-11-22T01:06:41;6.34;-6.00
67358;HTU21D;54240;51.096;5.878;2023-11-22T01:09:07;6.34;-6.00
67358;HTU21D;54240;51.096;5.878;2023-11-22T01:11:34;6.20;-6.00
67358;HTU21D;54240;51.096;5.878;2023-11-22T01:14:00;6.15;-6.00
67358;HTU21D;54240;51.096;5.878;2023-11-22T01:16:26;6.21;-6.00
67358;HTU21D;54240;51.096;5.878;2023-11-22T01:18:52;6.15;-6.00
67358;HTU21D;54240;51.096;5.878;2023-11-22T01:21:19;6.12;-6.00
67358;HTU21D;54240;51.096;5.878;2023-11-22T01:23:45;6.11;-6.00
67358;HTU21D;54240;51.096;5.878;2023-11-22T01:26:12;6.14;-6.00
67358;HTU21D;54240;51.096;5.878;2023-11-22T01:28:38;6.07;-6.00
67358;HTU21D;54240;51.096;5.878;2023-11-22T01:31:06;6.05;-6.00
67358;HTU21D;54240;51.096;5.878;2023-11-22T01:33:31;6.05;-6.00
67358;HTU21D;54240;51.096;5.878;2023-11-22T01:36:01;5.98;-6.00
67358;HTU21D;54240;51.096;5.878;2023-11-22T01:38:27;5.91;-6.00
67358;HTU21D;54240;51.096;5.878;2023-11-22T01:40:53;6.00;-6.00
67358;HTU21D;54240;51.096;5.878;2023-11-22T01:43:20;6.02;-6.00
67358;HTU21D;54240;51.096;5.878;2023-11-22T01:45:55;5.92;-6.00
67358;HTU21D;54240;51.096;5.878;2023-11-22T01:48:22;5.79;-6.00
67358;HTU21D;54240;51.096;5.878;2023-11-22T01:50:48;5.85;-6.00
67358;HTU21D;54240;51.096;5.878;2023-11-22T01:53:16;5.80;-6.00
67358;HTU21D;54240;51.096;5.878;2023-11-22T01:55:43;5.83;-6.00
67358;HTU21D;54240;51.096;5.878;2023-11-22T01:58:10;5.72;-6.00
67358;HTU21D;54240;51.096;5.878;2023-11-22T02:00:44;5.75;-6.00
67358;HTU21D;54240;51.096;5.878;2023-11-22T02:03:11;5.71;-6.00
67358;HTU21D;54240;51.096;5.878;2023-11-22T02:05:42;5.77;-6.00
67358;HTU21D;54240;51.096;5.878;2023-11-22T02:08:12;5.77;-6.00
67358;HTU21D;54240;51.096;5.878;2023-11-22T02:10:39;5.86;-6.00
67358;HTU21D;54240;51.096;5.878;2023-11-22T02:13:07;5.83;-6.00
67358;HTU21D;54240;51.096;5.878;2023-11-22T02:15:36;5.91;-6.00
67358;HTU21D;54240;51.096;5.878;2023-11-22T02:18:04;5.90;-6.00
67358;HTU21D;54240;51.096;5.878;2023-11-22T02:20:31;5.87;-6.00
67358;HTU21D;54240;51.096;5.878;2023-11-22T02:23:03;5.91;-6.00
67358;HTU21D;54240;51.096;5.878;2023-11-22T02:25:29;5.86;-6.00
67358;HTU21D;54240;51.096;5.878;2023-11-22T02:27:55;5.81;-6.00
67358;HTU21D;54240;51.096;5.878;2023-11-22T02:30:20;6.13;-6.00
67358;HTU21D;54240;51.096;5.878;2023-11-22T02:32:47;6.21;-6.00
67358;HTU21D;54240;51.096;5.878;2023-11-22T02:35:13;6.09;-6.00
67358;HTU21D;54240;51.096;5.878;2023-11-22T02:37:41;6.12;-6.00
67358;HTU21D;54240;51.096;5.878;2023-11-22T02:40:21;6.15;-6.00
67358;HTU21D;54240;51.096;5.878;2023-11-22T02:42:52;6.05;-6.00
67358;HTU21D;54240;51.096;5.878;2023-11-22T02:45:33;6.01;-6.00
67358;HTU21D;54240;51.096;5.878;2023-11-22T02:47:59;5.62;-6.00
67358;HTU21D;54240;51.096;5.878;2023-11-22T02:50:27;5.65;-6.00
67358;HTU21D;54240;51.096;5.878;2023-11-22T02:52:53;5.79;-6.00
67358;HTU21D;54240;51.096;5.878;2023-11-22T02:55:19;5.76;-6.00
67358;HTU21D;54240;51.096;5.878;2023-11-22T02:57:45;5.93;-6.00
67358;HTU21D;54240;51.096;5.878;2023-11-22T03:00:11;5.87;-6.00
67358;HTU21D;54240;51.096;5.878;2023-11-22T03:02:41;5.90;-6.00
67358;HTU21D;54240;51.096;5.878;2023-11-22T03:05:10;5.87;-6.00
67358;HTU21D;54240;51.096;5.878;2023-11-22T03:07:37;5.81;-6.00
67358;HTU21D;54240;51.096;5.878;2023-11-22T03:10:04;5.86;-6.00
67358;HTU21D;54240;51.096;5.878;2023-11-22T03:12:30;5.75;-6.00
67358;HTU21D;54240;51.096;5.878;2023-11-22T03:14:56;5.89;-6.00
67358;HTU21D;54240;51.096;5.878;2023-11-22T03:17:26;6.05;-6.00
67358;HTU21D;54240;51.096;5.878;2023-11-22T03:19:54;6.02;-6.00
67358;HTU21D;54240;51.096;5.878;2023-11-22T03:22:26;6.13;-6.00
67358;HTU21D;54240;51.096;5.878;2023-11-22T03:24:55;6.22;-6.00
67358;HTU21D;54240;51.096;5.878;2023-11-22T03:27:21;6.23;-6.00
67358;HTU21D;54240;51.096;5.878;2023-11-22T03:29:49;6.29;-6.00
67358;HTU21D;54240;51.096;5.878;2023-11-22T03:32:15;6.26;-6.00
67358;HTU21D;54240;51.096;5.878;2023-11-22T03:34:41;6.01;-6.00
67358;HTU21D;54240;51.096;5.878;2023-11-22T03:37:07;5.97;-6.00
67358;HTU21D;54240;51.096;5.878;2023-11-22T03:39:33;5.89;-6.00
67358;HTU21D;54240;51.096;5.878;2023-11-22T03:41:59;5.98;-6.00
67358;HTU21D;54240;51.096;5.878;2023-11-22T03:44:25;6.01;-6.00
67358;HTU21D;54240;51.096;5.878;2023-11-22T03:46:51;5.89;-6.00
67358;HTU21D;54240;51.096;5.878;2023-11-22T03:49:17;6.12;-6.00
67358;HTU21D;54240;51.096;5.878;2023-11-22T03:51:43;6.15;-6.00
67358;HTU21D;54240;51.096;5.878;2023-11-22T03:54:09;6.13;-6.00
67358;HTU21D;54240;51.096;5.878;2023-11-22T03:56:36;5.95;-6.00
67358;HTU21D;54240;51.096;5.878;2023-11-22T03:59:02;6.05;-6.00
67358;HTU21D;54240;51.096;5.878;2023-11-22T04:01:29;6.11;-6.00
67358;HTU21D;54240;51.096;5.878;2023-11-22T04:03:54;6.08;-6.00
67358;HTU21D;54240;51.096;5.878;2023-11-22T04:06:20;6.12;-6.00
67358;HTU21D;54240;51.096;5.878;2023-11-22T04:08:47;5.98;-6.00
67358;HTU21D;54240;51.096;5.878;2023-11-22T04:11:13;5.64;-6.00
67358;HTU21D;54240;51.096;5.878;2023-11-22T04:13:39;5.69;-6.00
67358;HTU21D;54240;51.096;5.878;2023-11-22T04:16:07;5.69;-6.00
67358;HTU21D;54240;51.096;5.878;2023-11-22T04:18:39;5.61;-6.00
67358;HTU21D;54240;51.096;5.878;2023-11-22T04:21:06;5.68;-6.00
67358;HTU21D;54240;51.096;5.878;2023-11-22T04:23:32;5.77;-6.00
67358;HTU21D;54240;51.096;5.878;2023-11-22T04:26:01;5.84;-6.00
67358;HTU21D;54240;51.096;5.878;2023-11-22T04:28:28;5.92;-6.00
67358;HTU21D;54240;51.096;5.878;2023-11-22T04:30:57;5.98;-6.00
67358;HTU21D;54240;51.096;5.878;2023-11-22T04:33:24;6.04;-6.00
67358;HTU21D;54240;51.096;5.878;2023-11-22T04:35:50;5.98;-6.00
67358;HTU21D;54240;51.096;5.878;2023-11-22T04:38:17;6.05;-6.00
67358;HTU21D;54240;51.096;5.878;2023-11-22T04:40:44;6.08;-6.00
67358;HTU21D;54240;51.096;5.878;2023-11-22T04:43:09;6.08;-6.00
67358;HTU21D;54240;51.096;5.878;2023-11-22T04:45:35;6.08;-6.00
67358;HTU21D;54240;51.096;5.878;2023-11-22T04:48:02;6.01;-6.00
67358;HTU21D;54240;51.096;5.878;2023-11-22T04:50:28;6.05;-6.00
67358;HTU21D;54240;51.096;5.878;2023-11-22T04:52:53;6.10;-6.00
67358;HTU21D;54240;51.096;5.878;2023-11-22T04:55:19;6.11;-6.00
67358;HTU21D;54240;51.096;5.878;2023-11-22T04:57:46;6.15;-6.00
67358;HTU21D;54240;51.096;5.878;2023-11-22T05:00:12;6.05;-6.00
67358;HTU21D;54240;51.096;5.878;2023-11-22T05:02:38;6.09;-6.00
67358;HTU21D;54240;51.096;5.878;2023-11-22T05:05:06;6.17;-6.00
67358;HTU21D;54240;51.096;5.878;2023-11-22T05:07:32;6.16;-6.00
67358;HTU21D;54240;51.096;5.878;2023-11-22T05:09:58;6.11;-6.00
67358;HTU21D;54240;51.096;5.878;2023-11-22T05:12:24;6.16;-6.00
67358;HTU21D;54240;51.096;5.878;2023-11-22T05:14:50;5.95;-6.00
67358;HTU21D;54240;51.096;5.878;2023-11-22T05:17:15;5.92;-6.00
67358;HTU21D;54240;51.096;5.878;2023-11-22T05:19:41;5.97;-6.00
67358;HTU21D;54240;51.096;5.878;2023-11-22T05:22:07;6.01;-6.00
67358;HTU21D;54240;51.096;5.878;2023-11-22T05:24:33;6.04;-6.00
67358;HTU21D;54240;51.096;5.878;2023-11-22T05:27:00;6.06;-6.00
67358;HTU21D;54240;51.096;5.878;2023-11-22T05:29:27;6.07;-6.00
67358;HTU21D;54240;51.096;5.878;2023-11-22T05:31:53;5.98;-6.00
67358;HTU21D;54240;51.096;5.878;2023-11-22T05:34:19;5.99;-6.00
67358;HTU21D;54240;51.096;5.878;2023-11-22T05:36:45;5.86;-6.00
67358;HTU21D;54240;51.096;5.878;2023-11-22T05:39:10;5.96;-6.00
67358;HTU21D;54240;51.096;5.878;2023-11-22T05:41:38;5.92;-6.00
67358;HTU21D;54240;51.096;5.878;2023-11-22T05:44:04;5.86;-6.00
67358;HTU21D;54240;51.096;5.878;2023-11-22T05:46:29;5.90;-6.00
67358;HTU21D;54240;51.096;5.878;2023-11-22T05:48:55;5.99;-6.00
67358;HTU21D;54240;51.096;5.878;2023-11-22T05:51:21;6.07;-6.00
67358;HTU21D;54240;51.096;5.878;2023-11-22T05:53:47;6.14;-6.00
67358;HTU21D;54240;51.096;5.878;2023-11-22T05:56:13;6.23;-6.00
67358;HTU21D;54240;51.096;5.878;2023-11-22T05:58:40;6.27;-6.00
67358;HTU21D;54240;51.096;5.878;2023-11-22T06:01:07;6.33;-6.00
67358;HTU21D;54240;51.096;5.878;2023-11-22T06:03:35;6.30;-6.00
67358;HTU21D;54240;51.096;5.878;2023-11-22T06:06:01;6.13;-6.00
67358;HTU21D;54240;51.096;5.878;2023-11-22T06:08:28;6.00;-6.00
67358;HTU21D;54240;51.096;5.878;2023-11-22T06:10:56;6.16;-6.00
67358;HTU21D;54240;51.096;5.878;2023-11-22T06:13:23;6.22;-6.00
67358;HTU21D;54240;51.096;5.878;2023-11-22T06:15:49;6.30;-6.00
67358;HTU21D;54240;51.096;5.878;2023-11-22T06:18:16;6.40;-6.00
67358;HTU21D;54240;51.096;5.878;2023-11-22T06:20:42;6.48;-6.00
67358;HTU21D;54240;51.096;5.878;2023-11-22T06:23:08;6.53;-6.00
67358;HTU21D;54240;51.096;5.878;2023-11-22T06:25:35;6.57;-6.00
67358;HTU21D;54240;51.096;5.878;2023-11-22T06:28:03;6.69;-6.00
67358;HTU21D;54240;51.096;5.878;2023-11-22T06:30:29;6.78;-6.00
67358;HTU21D;54240;51.096;5.878;2023-11-22T06:32:56;6.95;-6.00
67358;HTU21D;54240;51.096;5.878;2023-11-22T06:35:22;7.08;-6.00
67358;HTU21D;54240;51.096;5.878;2023-11-22T06:37:48;7.20;-6.00
67358;HTU21D;54240;51.096;5.878;2023-11-22T06:40:14;7.24;-6.00
67358;HTU21D;54240;51.096;5.878;2023-11-22T06:42:41;7.20;-6.00
67358;HTU21D;54240;51.096;5.878;2023-11-22T06:45:10;7.14;-6.00
67358;HTU21D;54240;51.096;5.878;2023-11-22T06:47:36;7.13;-6.00
67358;HTU21D;54240;51.096;5.878;2023-11-22T06:50:03;7.11;-6.00
67358;HTU21D;54240;51.096;5.878;2023-11-22T06:52:38;7.14;-6.00
67358;HTU21D;54240;51.096;5.878;2023-11-22T06:55:09;7.14;-6.00
67358;HTU21D;54240;51.096;5.878;2023-11-22T06:57:36;7.02;-6.00
67358;HTU21D;54240;51.096;5.878;2023-11-22T07:00:03;6.95;-6.00
67358;HTU21D;54240;51.096;5.878;2023-11-22T07:02:32;6.78;-6.00
67358;HTU21D;54240;51.096;5.878;2023-11-22T07:04:58;6.67;-6.00
67358;HTU21D;54240;51.096;5.878;2023-11-22T07:07:29;6.56;-6.00
67358;HTU21D;54240;51.096;5.878;2023-11-22T07:09:55;6.49;-6.00
67358;HTU21D;54240;51.096;5.878;2023-11-22T07:12:27;6.49;-6.00
67358;HTU21D;54240;51.096;5.878;2023-11-22T07:14:53;6.54;-6.00
67358;HTU21D;54240;51.096;5.878;2023-11-22T07:17:19;6.64;-6.00
67358;HTU21D;54240;51.096;5.878;2023-11-22T07:19:45;6.74;-6.00
67358;HTU21D;54240;51.096;5.878;2023-11-22T07:22:15;6.73;-6.00
67358;HTU21D;54240;51.096;5.878;2023-11-22T07:24:46;6.68;-6.00
67358;HTU21D;54240;51.096;5.878;2023-11-22T07:27:16;6.69;-6.00
67358;HTU21D;54240;51.096;5.878;2023-11-22T07:29:43;6.75;-6.00
67358;HTU21D;54240;51.096;5.878;2023-11-22T07:32:10;6.88;-6.00
67358;HTU21D;54240;51.096;5.878;2023-11-22T07:34:37;7.00;-6.00
67358;HTU21D;54240;51.096;5.878;2023-11-22T07:37:03;7.08;-6.00
67358;HTU21D;54240;51.096;5.878;2023-11-22T07:39:29;7.12;-6.00
67358;HTU21D;54240;51.096;5.878;2023-11-22T07:41:55;7.11;-6.00
67358;HTU21D;54240;51.096;5.878;2023-11-22T07:44:22;7.18;-6.00
67358;HTU21D;54240;51.096;5.878;2023-11-22T07:46:48;7.22;-6.00
67358;HTU21D;54240;51.096;5.878;2023-11-22T07:49:14;7.30;-6.00
67358;HTU21D;54240;51.096;5.878;2023-11-22T07:51:40;7.37;-6.00
67358;HTU21D;54240;51.096;5.878;2023-11-22T07:54:07;7.38;-6.00
67358;HTU21D;54240;51.096;5.878;2023-11-22T07:56:34;7.39;-6.00
67358;HTU21D;54240;51.096;5.878;2023-11-22T07:59:00;7.40;-6.00
67358;HTU21D;54240;51.096;5.878;2023-11-22T08:01:26;7.40;-6.00
67358;HTU21D;54240;51.096;5.878;2023-11-22T08:03:55;7.38;-6.00
67358;HTU21D;54240;51.096;5.878;2023-11-22T08:06:21;7.44;-6.00
67358;HTU21D;54240;51.096;5.878;2023-11-22T08:08:47;7.46;-6.00
67358;HTU21D;54240;51.096;5.878;2023-11-22T08:11:13;7.49;-6.00
67358;HTU21D;54240;51.096;5.878;2023-11-22T08:13:43;7.45;-6.00
67358;HTU21D;54240;51.096;5.878;2023-11-22T08:16:11;7.44;-6.00
67358;HTU21D;54240;51.096;5.878;2023-11-22T08:18:39;7.25;-6.00
67358;HTU21D;54240;51.096;5.878;2023-11-22T08:21:08;7.17;-6.00
67358;HTU21D;54240;51.096;5.878;2023-11-22T08:23:34;7.11;-6.00
67358;HTU21D;54240;51.096;5.878;2023-11-22T08:26:00;7.04;-6.00
67358;HTU21D;54240;51.096;5.878;2023-11-22T08:28:27;7.08;-6.00
67358;HTU21D;54240;51.096;5.878;2023-11-22T08:30:52;7.17;-6.00
67358;HTU21D;54240;51.096;5.878;2023-11-22T08:33:19;7.27;-6.00
67358;HTU21D;54240;51.096;5.878;2023-11-22T08:35:45;7.33;-6.00
67358;HTU21D;54240;51.096;5.878;2023-11-22T08:38:16;7.38;-6.00
67358;HTU21D;54240;51.096;5.878;2023-11-22T08:40:42;7.43;-6.00
67358;HTU21D;54240;51.096;5.878;2023-11-22T08:43:08;7.39;-6.00
67358;HTU21D;54240;51.096;5.878;2023-11-22T08:45:34;7.40;-6.00
67358;HTU21D;54240;51.096;5.878;2023-11-22T08:48:00;7.29;-6.00
67358;HTU21D;54240;51.096;5.878;2023-11-22T08:50:26;7.15;-6.00
67358;HTU21D;54240;51.096;5.878;2023-11-22T08:52:53;7.11;-6.00
67358;HTU21D;54240;51.096;5.878;2023-11-22T08:55:19;7.10;-6.00
67358;HTU21D;54240;51.096;5.878;2023-11-22T08:57:48;7.30;-6.00
67358;HTU21D;54240;51.096;5.878;2023-11-22T09:00:17;7.55;-6.00
67358;HTU21D;54240;51.096;5.878;2023-11-22T09:02:48;7.77;-6.00
67358;HTU21D;54240;51.096;5.878;2023-11-22T09:05:14;7.83;-6.00
67358;HTU21D;54240;51.096;5.878;2023-11-22T09:07:43;7.85;-6.00
67358;HTU21D;54240;51.096;5.878;2023-11-22T09:10:10;7.96;-6.00
67358;HTU21D;54240;51.096;5.878;2023-11-22T09:12:40;8.04;-6.00
67358;HTU21D;54240;51.096;5.878;2023-11-22T09:15:11;8.07;-6.00
67358;HTU21D;54240;51.096;5.878;2023-11-22T09:17:39;8.23;-6.00
67358;HTU21D;54240;51.096;5.878;2023-11-22T09:20:11;8.34;-6.00
67358;HTU21D;54240;51.096;5.878;2023-11-22T09:22:45;8.46;-6.00
67358;HTU21D;54240;51.096;5.878;2023-11-22T09:25:14;8.62;-6.00
67358;HTU21D;54240;51.096;5.878;2023-11-22T09:27:43;8.83;-6.00
67358;HTU21D;54240;51.096;5.878;2023-11-22T09:30:13;9.07;-6.00
67358;HTU21D;54240;51.096;5.878;2023-11-22T09:35:27;9.38;-6.00
67358;HTU21D;54240;51.096;5.878;2023-11-22T09:37:55;9.41;-6.00
67358;HTU21D;54240;51.096;5.878;2023-11-22T09:40:24;9.52;-6.00
67358;HTU21D;54240;51.096;5.878;2023-11-22T09:42:52;9.72;-6.00
67358;HTU21D;54240;51.096;5.878;2023-11-22T09:45:20;9.90;-6.00
67358;HTU21D;54240;51.096;5.878;2023-11-22T09:47:46;9.95;-6.00
67358;HTU21D;54240;51.096;5.878;2023-11-22T09:50:29;9.92;-6.00
67358;HTU21D;54240;51.096;5.878;2023-11-22T09:53:00;9.80;-6.00
67358;HTU21D;54240;51.096;5.878;2023-11-22T09:55:28;9.65;-6.00
67358;HTU21D;54240;51.096;5.878;2023-11-22T09:57:59;9.52;-6.00
67358;HTU21D;54240;51.096;5.878;2023-11-22T10:00:28;9.36;-6.00
67358;HTU21D;54240;51.096;5.878;2023-11-22T10:02:56;9.33;-6.00
67358;HTU21D;54240;51.096;5.878;2023-11-22T10:05:24;9.41;-6.00
67358;HTU21D;54240;51.096;5.878;2023-11-22T10:07:50;9.40;-6.00
67358;HTU21D;54240;51.096;5.878;2023-11-22T10:10:19;9.29;-6.00
67358;HTU21D;54240;51.096;5.878;2023-11-22T10:12:47;9.30;-6.00
67358;HTU21D;54240;51.096;5.878;2023-11-22T10:15:16;9.24;-6.00
67358;HTU21D;54240;51.096;5.878;2023-11-22T10:17:54;9.10;-6.00
67358;HTU21D;54240;51.096;5.878;2023-11-22T10:20:25;9.01;-6.00
67358;HTU21D;54240;51.096;5.878;2023-11-22T10:22:54;9.10;-6.00
67358;HTU21D;54240;51.096;5.878;2023-11-22T10:25:20;9.20;-6.00
67358;HTU21D;54240;51.096;5.878;2023-11-22T10:27:48;9.26;-6.00
67358;HTU21D;54240;51.096;5.878;2023-11-22T10:30:18;9.51;-6.00
67358;HTU21D;54240;51.096;5.878;2023-11-22T10:32:45;10.10;-6.00
67358;HTU21D;54240;51.096;5.878;2023-11-22T10:35:11;10.84;-6.00
67358;HTU21D;54240;51.096;5.878;2023-11-22T10:37:41;11.59;-6.00
67358;HTU21D;54240;51.096;5.878;2023-11-22T10:40:12;11.93;-6.00
67358;HTU21D;54240;51.096;5.878;2023-11-22T10:42:41;12.04;-6.00
67358;HTU21D;54240;51.096;5.878;2023-11-22T10:45:10;12.18;-6.00
67358;HTU21D;54240;51.096;5.878;2023-11-22T10:47:39;12.34;-6.00
67358;HTU21D;54240;51.096;5.878;2023-11-22T10:50:08;12.61;-6.00
67358;HTU21D;54240;51.096;5.878;2023-11-22T10:52:36;12.74;-6.00
67358;HTU21D;54240;51.096;5.878;2023-11-22T10:55:04;12.66;-6.00
67358;HTU21D;54240;51.096;5.878;2023-11-22T10:57:42;12.50;-6.00
67358;HTU21D;54240;51.096;5.878;2023-11-22T11:00:11;12.60;-6.00
67358;HTU21D;54240;51.096;5.878;2023-11-22T11:02:45;12.76;-6.00
67358;HTU21D;54240;51.096;5.878;2023-11-22T11:05:21;12.93;-6.00
67358;HTU21D;54240;51.096;5.878;2023-11-22T11:08:09;12.93;-6.00
67358;HTU21D;54240;51.096;5.878;2023-11-22T11:10:40;12.97;-6.00
67358;HTU21D;54240;51.096;5.878;2023-11-22T11:13:10;13.05;-6.00
67358;HTU21D;54240;51.096;5.878;2023-11-22T11:15:38;13.39;-6.00
67358;HTU21D;54240;51.096;5.878;2023-11-22T11:18:06;13.60;-6.00
67358;HTU21D;54240;51.096;5.878;2023-11-22T11:20:45;13.88;-6.00
67358;HTU21D;54240;51.096;5.878;2023-11-22T11:23:14;13.81;-6.00
67358;HTU21D;54240;51.096;5.878;2023-11-22T11:25:41;13.73;-6.00
67358;HTU21D;54240;51.096;5.878;2023-11-22T11:28:11;13.47;-6.00
67358;HTU21D;54240;51.096;5.878;2023-11-22T11:30:41;13.60;-6.00
67358;HTU21D;54240;51.096;5.878;2023-11-22T11:33:10;13.39;-6.00
67358;HTU21D;54240;51.096;5.878;2023-11-22T11:35:43;13.20;-6.00
67358;HTU21D;54240;51.096;5.878;2023-11-22T11:38:13;13.19;-6.00
67358;HTU21D;54240;51.096;5.878;2023-11-22T11:40:42;12.72;-6.00
67358;HTU21D;54240;51.096;5.878;2023-11-22T11:43:09;12.02;-6.00
67358;HTU21D;54240;51.096;5.878;2023-11-22T11:45:41;11.60;-6.00
67358;HTU21D;54240;51.096;5.878;2023-11-22T11:48:15;11.14;-6.00
67358;HTU21D;54240;51.096;5.878;2023-11-22T11:50:42;10.92;-6.00
67358;HTU21D;54240;51.096;5.878;2023-11-22T11:53:11;10.86;-6.00
67358;HTU21D;54240;51.096;5.878;2023-11-22T11:55:37;10.87;-6.00
67358;HTU21D;54240;51.096;5.878;2023-11-22T11:58:07;11.01;-6.00
67358;HTU21D;54240;51.096;5.878;2023-11-22T12:00:36;11.00;-6.00
67358;HTU21D;54240;51.096;5.878;2023-11-22T12:03:09;10.94;-6.00
67358;HTU21D;54240;51.096;5.878;2023-11-22T12:05:36;11.14;-6.00
67358;HTU21D;54240;51.096;5.878;2023-11-22T12:08:02;11.39;-6.00
67358;HTU21D;54240;51.096;5.878;2023-11-22T12:10:28;11.61;-6.00
67358;HTU21D;54240;51.096;5.878;2023-11-22T12:12:55;11.68;-6.00
67358;HTU21D;54240;51.096;5.878;2023-11-22T12:15:21;11.75;-6.00
67358;HTU21D;54240;51.096;5.878;2023-11-22T12:17:50;11.63;-6.00
67358;HTU21D;54240;51.096;5.878;2023-11-22T12:20:22;11.24;-6.00
67358;HTU21D;54240;51.096;5.878;2023-11-22T12:22:48;10.94;-6.00
67358;HTU21D;54240;51.096;5.878;2023-11-22T12:25:14;10.51;-6.00
67358;HTU21D;54240;51.096;5.878;2023-11-22T12:27:44;10.06;-6.00
67358;HTU21D;54240;51.096;5.878;2023-11-22T12:30:32;9.71;-6.00
67358;HTU21D;54240;51.096;5.878;2023-11-22T12:33:10;9.51;-6.00
67358;HTU21D;54240;51.096;5.878;2023-11-22T12:35:42;9.39;-6.00
67358;HTU21D;54240;51.096;5.878;2023-11-22T12:38:10;9.36;-6.00
67358;HTU21D;54240;51.096;5.878;2023-11-22T12:40:36;9.40;-6.00
67358;HTU21D;54240;51.096;5.878;2023-11-22T12:43:03;9.51;-6.00
67358;HTU21D;54240;51.096;5.878;2023-11-22T12:45:30;9.60;-6.00
67358;HTU21D;54240;51.096;5.878;2023-11-22T12:47:58;9.57;-6.00
67358;HTU21D;54240;51.096;5.878;2023-11-22T12:50:37;9.53;-6.00
67358;HTU21D;54240;51.096;5.878;2023-11-22T12:53:13;9.45;-6.00
67358;HTU21D;54240;51.096;5.878;2023-11-22T12:55:44;9.53;-6.00
67358;HTU21D;54240;51.096;5.878;2023-11-22T12:58:11;9.67;-6.00
67358;HTU21D;54240;51.096;5.878;2023-11-22T13:00:41;9.48;-6.00
67358;HTU21D;54240;51.096;5.878;2023-11-22T13:03:10;9.76;-6.00
67358;HTU21D;54240;51.096;5.878;2023-11-22T13:05:37;9.91;-6.00
67358;HTU21D;54240;51.096;5.878;2023-11-22T13:08:03;9.99;-6.00
67358;HTU21D;54240;51.096;5.878;2023-11-22T13:10:29;10.08;-6.00
67358;HTU21D;54240;51.096;5.878;2023-11-22T13:12:56;9.97;-6.00
67358;HTU21D;54240;51.096;5.878;2023-11-22T13:15:23;9.98;-6.00
67358;HTU21D;54240;51.096;5.878;2023-11-22T13:17:50;9.80;-6.00
67358;HTU21D;54240;51.096;5.878;2023-11-22T13:20:29;9.63;-6.00
67358;HTU21D;54240;51.096;5.878;2023-11-22T13:22:55;9.49;-6.00
67358;HTU21D;54240;51.096;5.878;2023-11-22T13:25:22;9.31;-6.00
67358;HTU21D;54240;51.096;5.878;2023-11-22T13:27:50;9.30;-6.00
67358;HTU21D;54240;51.096;5.878;2023-11-22T13:30:18;9.38;-6.00
67358;HTU21D;54240;51.096;5.878;2023-11-22T13:32:57;9.35;-6.00
67358;HTU21D;54240;51.096;5.878;2023-11-22T13:35:24;9.44;-6.00
67358;HTU21D;54240;51.096;5.878;2023-11-22T13:37:51;9.55;-6.00
67358;HTU21D;54240;51.096;5.878;2023-11-22T13:40:19;9.63;-6.00
67358;HTU21D;54240;51.096;5.878;2023-11-22T13:42:49;9.63;-6.00
67358;HTU21D;54240;51.096;5.878;2023-11-22T13:45:16;9.67;-6.00
67358;HTU21D;54240;51.096;5.878;2023-11-22T13:47:52;9.70;-6.00
67358;HTU21D;54240;51.096;5.878;2023-11-22T13:50:20;9.72;-6.00
67358;HTU21D;54240;51.096;5.878;2023-11-22T13:52:49;9.78;-6.00
67358;HTU21D;54240;51.096;5.878;2023-11-22T13:55:16;9.79;-6.00
67358;HTU21D;54240;51.096;5.878;2023-11-22T13:57:45;9.59;-6.00
67358;HTU21D;54240;51.096;5.878;2023-11-22T14:00:11;9.40;-6.00
67358;HTU21D;54240;51.096;5.878;2023-11-22T14:02:55;9.34;-6.00
67358;HTU21D;54240;51.096;5.878;2023-11-22T14:05:30;9.39;-6.00
67358;HTU21D;54240;51.096;5.878;2023-11-22T14:07:56;9.37;-6.00
67358;HTU21D;54240;51.096;5.878;2023-11-22T14:10:23;9.36;-6.00
67358;HTU21D;54240;51.096;5.878;2023-11-22T14:12:49;9.35;-6.00
67358;HTU21D;54240;51.096;5.878;2023-11-22T14:15:16;9.23;-6.00
67358;HTU21D;54240;51.096;5.878;2023-11-22T14:17:42;9.21;-6.00
67358;HTU21D;54240;51.096;5.878;2023-11-22T14:20:09;9.08;-6.00
67358;HTU21D;54240;51.096;5.878;2023-11-22T14:22:37;9.10;-6.00
67358;HTU21D;54240;51.096;5.878;2023-11-22T14:25:03;9.19;-6.00
67358;HTU21D;54240;51.096;5.878;2023-11-22T14:27:38;9.23;-6.00
67358;HTU21D;54240;51.096;5.878;2023-11-22T14:30:05;9.23;-6.00
67358;HTU21D;54240;51.096;5.878;2023-11-22T14:32:34;9.24;-6.00
67358;HTU21D;54240;51.096;5.878;2023-11-22T14:35:04;9.15;-6.00
67358;HTU21D;54240;51.096;5.878;2023-11-22T14:37:31;9.05;-6.00
67358;HTU21D;54240;51.096;5.878;2023-11-22T14:39:57;9.01;-6.00
67358;HTU21D;54240;51.096;5.878;2023-11-22T14:42:24;8.97;-6.00
67358;HTU21D;54240;51.096;5.878;2023-11-22T14:44:51;9.03;-6.00
67358;HTU21D;54240;51.096;5.878;2023-11-22T14:47:17;8.92;-6.00
67358;HTU21D;54240;51.096;5.878;2023-11-22T14:49:53;9.00;-6.00
67358;HTU21D;54240;51.096;5.878;2023-11-22T14:52:19;8.87;-6.00
67358;HTU21D;54240;51.096;5.878;2023-11-22T14:54:47;8.64;-6.00
67358;HTU21D;54240;51.096;5.878;2023-11-22T14:57:13;8.57;-6.00
67358;HTU21D;54240;51.096;5.878;2023-11-22T14:59:43;8.48;-6.00
67358;HTU21D;54240;51.096;5.878;2023-11-22T15:02:10;8.44;-6.00
67358;HTU21D;54240;51.096;5.878;2023-11-22T15:04:37;8.39;-6.00
67358;HTU21D;54240;51.096;5.878;2023-11-22T15:07:04;8.50;-6.00
67358;HTU21D;54240;51.096;5.878;2023-11-22T15:09:32;8.47;-6.00
67358;HTU21D;54240;51.096;5.878;2023-11-22T15:12:01;8.41;-6.00
67358;HTU21D;54240;51.096;5.878;2023-11-22T15:14:33;8.33;-6.00
67358;HTU21D;54240;51.096;5.878;2023-11-22T15:17:01;8.39;-6.00
67358;HTU21D;54240;51.096;5.878;2023-11-22T15:19:29;8.41;-6.00
67358;HTU21D;54240;51.096;5.878;2023-11-22T15:21:56;8.49;-6.00
67358;HTU21D;54240;51.096;5.878;2023-11-22T15:24:22;8.44;-6.00
67358;HTU21D;54240;51.096;5.878;2023-11-22T15:26:48;8.44;-6.00
67358;HTU21D;54240;51.096;5.878;2023-11-22T15:29:13;8.38;-6.00
67358;HTU21D;54240;51.096;5.878;2023-11-22T15:31:42;8.35;-6.00
67358;HTU21D;54240;51.096;5.878;2023-11-22T15:34:09;8.28;-6.00
67358;HTU21D;54240;51.096;5.878;2023-11-22T15:36:35;8.27;-6.00